sensor_id;sensor_type;location;lat;lon;timestamp;temperature;humidity
12315;DHT22;23886;46.614;14.276;2022-11-06T00:01:04;1.50;99.90
12315;DHT22;23886;46.614;14.276;2022-11-06T00:03:32;1.50;99.90
12315;DHT22;23886;46.614;14.276;2022-11-06T00:06:05;1.70;99.90
12315;DHT22;23886;46.614;14.276;2022-11-06T00:08:49;1.70;99.90
12315;DHT22;23886;46.614;14.276;2022-11-06T00:11:16;1.80;99.90
12315;DHT22;23886;46.614;14.276;2022-11-06T00:13:44;1.70;99.90
12315;DHT22;23886;46.614;14.276;2022-11-06T00:16:13;1.70;99.90
12315;DHT22;23886;46.614;14.276;2022-11-06T00:18:41;1.50;99.90
12315;DHT22;23886;46.614;14.276;2022-11-06T00:21:10;1.60;99.90
12315;DHT22;23886;46.614;14.276;2022-11-06T00:23:38;1.50;99.90
12315;DHT22;23886;46.614;14.276;2022-11-06T00:26:06;1.40;99.90
12315;DHT22;23886;46.614;14.276;2022-11-06T00:28:33;1.40;99.90
12315;DHT22;23886;46.614;14.276;2022-11-06T00:31:02;1.50;99.90
12315;DHT22;23886;46.614;14.276;2022-11-06T00:33:29;1.40;99.90
12315;DHT22;23886;46.614;14.276;2022-11-06T00:35:57;1.50;99.90
12315;DHT22;23886;46.614;14.276;2022-11-06T00:38:25;1.40;99.90
12315;DHT22;23886;46.614;14.276;2022-11-06T00:40:52;1.40;99.90
12315;DHT22;23886;46.614;14.276;2022-11-06T00:43:19;1.30;99.90
12315;DHT22;23886;46.614;14.276;2022-11-06T00:45:46;1.30;99.90
12315;DHT22;23886;46.614;14.276;2022-11-06T00:48:13;1.30;99.90
12315;DHT22;23886;46.614;14.276;2022-11-06T00:50:40;1.30;99.90
12315;DHT22;23886;46.614;14.276;2022-11-06T00:53:07;1.30;99.90
12315;DHT22;23886;46.614;14.276;2022-11-06T00:55:36;1.30;99.90
12315;DHT22;23886;46.614;14.276;2022-11-06T00:58:03;1.40;99.90
12315;DHT22;23886;46.614;14.276;2022-11-06T01:00:30;1.40;99.90
12315;DHT22;23886;46.614;14.276;2022-11-06T01:02:57;1.40;99.90
12315;DHT22;23886;46.614;14.276;2022-11-06T01:05:24;1.40;99.90
12315;DHT22;23886;46.614;14.276;2022-11-06T01:07:51;1.30;99.90
12315;DHT22;23886;46.614;14.276;2022-11-06T01:10:18;1.30;99.90
12315;DHT22;23886;46.614;14.276;2022-11-06T01:12:46;1.10;99.90
12315;DHT22;23886;46.614;14.276;2022-11-06T01:17:41;1.20;99.90
12315;DHT22;23886;46.614;14.276;2022-11-06T01:20:09;1.20;99.90
12315;DHT22;23886;46.614;14.276;2022-11-06T01:22:36;1.10;99.90
12315;DHT22;23886;46.614;14.276;2022-11-06T01:25:03;1.10;99.90
12315;DHT22;23886;46.614;14.276;2022-11-06T01:27:31;1.00;99.90
12315;DHT22;23886;46.614;14.276;2022-11-06T01:29:59;1.10;99.90
12315;DHT22;23886;46.614;14.276;2022-11-06T01:32:26;1.10;99.90
12315;DHT22;23886;46.614;14.276;2022-11-06T01:34:53;1.10;99.90
12315;DHT22;23886;46.614;14.276;2022-11-06T01:37:20;1.30;99.90
12315;DHT22;23886;46.614;14.276;2022-11-06T01:39:48;1.40;99.90
12315;DHT22;23886;46.614;14.276;2022-11-06T01:42:18;1.40;99.90
12315;DHT22;23886;46.614;14.276;2022-11-06T01:45:22;1.40;99.90
12315;DHT22;23886;46.614;14.276;2022-11-06T01:47:50;1.20;99.90
12315;DHT22;23886;46.614;14.276;2022-11-06T01:50:17;1.20;99.90
12315;DHT22;23886;46.614;14.276;2022-11-06T01:52:45;1.10;99.90
12315;DHT22;23886;46.614;14.276;2022-11-06T01:55:18;1.10;99.90
12315;DHT22;23886;46.614;14.276;2022-11-06T01:57:47;1.20;99.90
12315;DHT22;23886;46.614;14.276;2022-11-06T02:02:44;1.20;99.90
12315;DHT22;23886;46.614;14.276;2022-11-06T02:05:12;1.10;99.90
12315;DHT22;23886;46.614;14.276;2022-11-06T02:07:40;1.10;99.90
12315;DHT22;23886;46.614;14.276;2022-11-06T02:10:08;1.10;99.90
12315;DHT22;23886;46.614;14.276;2022-11-06T02:13:01;1.10;99.90
12315;DHT22;23886;46.614;14.276;2022-11-06T02:15:39;1.10;99.90
12315;DHT22;23886;46.614;14.276;2022-11-06T02:18:20;1.10;99.90
12315;DHT22;23886;46.614;14.276;2022-11-06T02:21:18;1.00;99.90
12315;DHT22;23886;46.614;14.276;2022-11-06T02:23:59;1.00;99.90
12315;DHT22;23886;46.614;14.276;2022-11-06T02:26:52;1.10;99.90
12315;DHT22;23886;46.614;14.276;2022-11-06T02:29:28;1.00;99.90
12315;DHT22;23886;46.614;14.276;2022-11-06T02:31:59;1.00;99.90
12315;DHT22;23886;46.614;14.276;2022-11-06T02:34:30;0.90;99.90
12315;DHT22;23886;46.614;14.276;2022-11-06T02:37:01;0.90;99.90
12315;DHT22;23886;46.614;14.276;2022-11-06T02:39:31;1.00;99.90
12315;DHT22;23886;46.614;14.276;2022-11-06T02:42:02;1.00;99.90
12315;DHT22;23886;46.614;14.276;2022-11-06T02:44:31;1.00;99.90
12315;DHT22;23886;46.614;14.276;2022-11-06T02:47:04;0.90;99.90
12315;DHT22;23886;46.614;14.276;2022-11-06T02:49:40;0.90;99.90
12315;DHT22;23886;46.614;14.276;2022-11-06T02:52:12;0.80;99.90
12315;DHT22;23886;46.614;14.276;2022-11-06T02:54:44;0.90;99.90
12315;DHT22;23886;46.614;14.276;2022-11-06T02:57:15;0.90;99.90
12315;DHT22;23886;46.614;14.276;2022-11-06T02:59:49;0.90;99.90
12315;DHT22;23886;46.614;14.276;2022-11-06T03:02:20;0.90;99.90
12315;DHT22;23886;46.614;14.276;2022-11-06T03:04:52;0.80;99.90
12315;DHT22;23886;46.614;14.276;2022-11-06T03:07:25;0.80;99.90
12315;DHT22;23886;46.614;14.276;2022-11-06T03:09:54;0.70;99.90
12315;DHT22;23886;46.614;14.276;2022-11-06T03:12:26;0.70;99.90
12315;DHT22;23886;46.614;14.276;2022-11-06T03:14:58;0.70;99.90
12315;DHT22;23886;46.614;14.276;2022-11-06T03:17:34;0.80;99.90
12315;DHT22;23886;46.614;14.276;2022-11-06T03:20:11;0.80;99.90
12315;DHT22;23886;46.614;14.276;2022-11-06T03:22:48;0.70;99.90
12315;DHT22;23886;46.614;14.276;2022-11-06T03:25:19;0.70;99.90
12315;DHT22;23886;46.614;14.276;2022-11-06T03:27:51;0.80;99.90
12315;DHT22;23886;46.614;14.276;2022-11-06T03:30:21;0.90;99.90
12315;DHT22;23886;46.614;14.276;2022-11-06T03:32:49;0.90;99.90
12315;DHT22;23886;46.614;14.276;2022-11-06T03:35:22;0.90;99.90
12315;DHT22;23886;46.614;14.276;2022-11-06T03:37:55;0.90;99.90
12315;DHT22;23886;46.614;14.276;2022-11-06T03:40:26;0.90;99.90
12315;DHT22;23886;46.614;14.276;2022-11-06T03:42:58;0.80;99.90
12315;DHT22;23886;46.614;14.276;2022-11-06T03:45:27;0.90;99.90
12315;DHT22;23886;46.614;14.276;2022-11-06T03:47:58;1.00;99.90
12315;DHT22;23886;46.614;14.276;2022-11-06T03:50:29;0.90;99.90
12315;DHT22;23886;46.614;14.276;2022-11-06T03:53:02;0.90;99.90
12315;DHT22;23886;46.614;14.276;2022-11-06T03:55:35;0.90;99.90
12315;DHT22;23886;46.614;14.276;2022-11-06T03:58:08;0.90;99.90
12315;DHT22;23886;46.614;14.276;2022-11-06T04:00:39;0.90;99.90
12315;DHT22;23886;46.614;14.276;2022-11-06T04:03:14;0.70;99.90
12315;DHT22;23886;46.614;14.276;2022-11-06T04:05:47;0.70;99.90
12315;DHT22;23886;46.614;14.276;2022-11-06T04:08:20;0.90;99.90
12315;DHT22;23886;46.614;14.276;2022-11-06T04:11:07;0.80;99.90
12315;DHT22;23886;46.614;14.276;2022-11-06T04:13:56;0.70;99.90
12315;DHT22;23886;46.614;14.276;2022-11-06T04:16:30;0.70;99.90
12315;DHT22;23886;46.614;14.276;2022-11-06T04:18:58;0.80;99.90
12315;DHT22;23886;46.614;14.276;2022-11-06T04:21:32;0.80;99.90
12315;DHT22;23886;46.614;14.276;2022-11-06T04:24:07;0.80;99.90
12315;DHT22;23886;46.614;14.276;2022-11-06T04:27:14;0.80;99.90
12315;DHT22;23886;46.614;14.276;2022-11-06T04:30:00;0.70;99.90
12315;DHT22;23886;46.614;14.276;2022-11-06T04:32:34;0.70;99.90
12315;DHT22;23886;46.614;14.276;2022-11-06T04:35:09;0.60;99.90
12315;DHT22;23886;46.614;14.276;2022-11-06T04:37:45;0.60;99.90
12315;DHT22;23886;46.614;14.276;2022-11-06T04:40:22;0.70;99.90
12315;DHT22;23886;46.614;14.276;2022-11-06T04:42:55;0.70;99.90
12315;DHT22;23886;46.614;14.276;2022-11-06T04:45:27;0.50;99.90
12315;DHT22;23886;46.614;14.276;2022-11-06T04:47:56;0.50;99.90
12315;DHT22;23886;46.614;14.276;2022-11-06T04:50:25;0.60;99.90
12315;DHT22;23886;46.614;14.276;2022-11-06T04:52:54;0.60;99.90
12315;DHT22;23886;46.614;14.276;2022-11-06T04:55:21;0.70;99.90
12315;DHT22;23886;46.614;14.276;2022-11-06T04:57:48;0.60;99.90
12315;DHT22;23886;46.614;14.276;2022-11-06T05:00:16;0.50;99.90
12315;DHT22;23886;46.614;14.276;2022-11-06T05:02:45;0.50;99.90
12315;DHT22;23886;46.614;14.276;2022-11-06T05:05:12;0.60;99.90
12315;DHT22;23886;46.614;14.276;2022-11-06T05:07:39;0.50;99.90
12315;DHT22;23886;46.614;14.276;2022-11-06T05:10:06;0.60;99.90
12315;DHT22;23886;46.614;14.276;2022-11-06T05:12:33;0.50;99.90
12315;DHT22;23886;46.614;14.276;2022-11-06T05:15:00;0.50;99.90
12315;DHT22;23886;46.614;14.276;2022-11-06T05:17:27;0.50;99.90
12315;DHT22;23886;46.614;14.276;2022-11-06T05:22:23;0.40;99.90
12315;DHT22;23886;46.614;14.276;2022-11-06T05:25:07;0.50;99.90
12315;DHT22;23886;46.614;14.276;2022-11-06T05:27:34;0.40;99.90
12315;DHT22;23886;46.614;14.276;2022-11-06T05:30:02;0.30;99.90
12315;DHT22;23886;46.614;14.276;2022-11-06T05:32:29;0.30;99.90
12315;DHT22;23886;46.614;14.276;2022-11-06T05:34:57;0.30;99.90
12315;DHT22;23886;46.614;14.276;2022-11-06T05:37:25;0.20;99.90
12315;DHT22;23886;46.614;14.276;2022-11-06T05:39:52;0.20;99.90
12315;DHT22;23886;46.614;14.276;2022-11-06T05:42:19;0.20;99.90
12315;DHT22;23886;46.614;14.276;2022-11-06T05:44:46;0.20;99.90
12315;DHT22;23886;46.614;14.276;2022-11-06T05:47:13;0.20;99.90
12315;DHT22;23886;46.614;14.276;2022-11-06T05:49:40;0.40;99.90
12315;DHT22;23886;46.614;14.276;2022-11-06T05:52:09;0.30;99.90
12315;DHT22;23886;46.614;14.276;2022-11-06T05:54:36;0.20;99.90
12315;DHT22;23886;46.614;14.276;2022-11-06T05:57:03;0.30;99.90
12315;DHT22;23886;46.614;14.276;2022-11-06T05:59:30;0.20;99.90
12315;DHT22;23886;46.614;14.276;2022-11-06T06:01:57;0.20;99.90
12315;DHT22;23886;46.614;14.276;2022-11-06T06:04:24;0.20;99.90
12315;DHT22;23886;46.614;14.276;2022-11-06T06:06:51;0.20;99.90
12315;DHT22;23886;46.614;14.276;2022-11-06T06:09:19;0.20;99.90
12315;DHT22;23886;46.614;14.276;2022-11-06T06:11:49;0.30;99.90
12315;DHT22;23886;46.614;14.276;2022-11-06T06:14:17;0.40;99.90
12315;DHT22;23886;46.614;14.276;2022-11-06T06:16:44;0.50;99.90
12315;DHT22;23886;46.614;14.276;2022-11-06T06:19:11;0.60;99.90
12315;DHT22;23886;46.614;14.276;2022-11-06T06:21:38;0.70;99.90
12315;DHT22;23886;46.614;14.276;2022-11-06T06:24:05;0.80;99.90
12315;DHT22;23886;46.614;14.276;2022-11-06T06:26:34;0.80;99.90
12315;DHT22;23886;46.614;14.276;2022-11-06T06:29:01;0.80;99.90
12315;DHT22;23886;46.614;14.276;2022-11-06T06:31:28;0.80;99.90
12315;DHT22;23886;46.614;14.276;2022-11-06T06:33:55;0.90;99.90
12315;DHT22;23886;46.614;14.276;2022-11-06T06:36:22;0.80;99.90
12315;DHT22;23886;46.614;14.276;2022-11-06T06:38:49;0.90;99.90
12315;DHT22;23886;46.614;14.276;2022-11-06T06:41:16;0.90;99.90
12315;DHT22;23886;46.614;14.276;2022-11-06T06:43:46;0.90;99.90
12315;DHT22;23886;46.614;14.276;2022-11-06T06:46:13;1.00;99.90
12315;DHT22;23886;46.614;14.276;2022-11-06T06:48:40;1.00;99.90
12315;DHT22;23886;46.614;14.276;2022-11-06T06:51:07;1.10;99.90
12315;DHT22;23886;46.614;14.276;2022-11-06T06:53:35;1.20;99.90
12315;DHT22;23886;46.614;14.276;2022-11-06T06:56:02;1.20;99.90
12315;DHT22;23886;46.614;14.276;2022-11-06T06:58:30;1.20;99.90
12315;DHT22;23886;46.614;14.276;2022-11-06T07:01:00;1.20;99.90
12315;DHT22;23886;46.614;14.276;2022-11-06T07:03:27;1.20;99.90
12315;DHT22;23886;46.614;14.276;2022-11-06T07:05:55;1.30;99.90
12315;DHT22;23886;46.614;14.276;2022-11-06T07:08:23;1.40;99.90
12315;DHT22;23886;46.614;14.276;2022-11-06T07:10:50;1.50;99.90
12315;DHT22;23886;46.614;14.276;2022-11-06T07:13:17;1.60;99.90
12315;DHT22;23886;46.614;14.276;2022-11-06T07:15:44;1.60;99.90
12315;DHT22;23886;46.614;14.276;2022-11-06T07:18:12;1.70;99.90
12315;DHT22;23886;46.614;14.276;2022-11-06T07:20:39;1.70;99.90
12315;DHT22;23886;46.614;14.276;2022-11-06T07:23:07;1.80;99.90
12315;DHT22;23886;46.614;14.276;2022-11-06T07:25:34;1.80;99.90
12315;DHT22;23886;46.614;14.276;2022-11-06T07:28:02;2.00;99.90
12315;DHT22;23886;46.614;14.276;2022-11-06T07:30:30;2.10;99.90
12315;DHT22;23886;46.614;14.276;2022-11-06T07:32:59;2.20;99.90
12315;DHT22;23886;46.614;14.276;2022-11-06T07:35:28;2.30;99.90
12315;DHT22;23886;46.614;14.276;2022-11-06T07:37:56;2.50;99.90
12315;DHT22;23886;46.614;14.276;2022-11-06T07:40:23;2.50;99.90
12315;DHT22;23886;46.614;14.276;2022-11-06T07:42:50;2.50;99.90
12315;DHT22;23886;46.614;14.276;2022-11-06T07:45:17;2.60;99.90
12315;DHT22;23886;46.614;14.276;2022-11-06T07:47:44;2.80;99.90
12315;DHT22;23886;46.614;14.276;2022-11-06T07:50:11;2.90;99.90
12315;DHT22;23886;46.614;14.276;2022-11-06T07:52:39;3.00;99.90
12315;DHT22;23886;46.614;14.276;2022-11-06T07:55:07;3.00;99.90
12315;DHT22;23886;46.614;14.276;2022-11-06T07:57:35;3.10;99.90
12315;DHT22;23886;46.614;14.276;2022-11-06T08:00:04;3.30;99.90
12315;DHT22;23886;46.614;14.276;2022-11-06T08:02:31;3.40;99.90
12315;DHT22;23886;46.614;14.276;2022-11-06T08:04:58;3.40;99.90
12315;DHT22;23886;46.614;14.276;2022-11-06T08:07:25;3.50;99.90
12315;DHT22;23886;46.614;14.276;2022-11-06T08:09:53;3.50;99.90
12315;DHT22;23886;46.614;14.276;2022-11-06T08:12:20;3.70;99.90
12315;DHT22;23886;46.614;14.276;2022-11-06T08:14:47;3.80;99.90
12315;DHT22;23886;46.614;14.276;2022-11-06T08:17:14;3.90;99.90
12315;DHT22;23886;46.614;14.276;2022-11-06T08:19:41;4.10;99.90
12315;DHT22;23886;46.614;14.276;2022-11-06T08:22:08;4.10;99.90
12315;DHT22;23886;46.614;14.276;2022-11-06T08:24:35;4.30;99.90
12315;DHT22;23886;46.614;14.276;2022-11-06T08:27:04;4.30;99.90
12315;DHT22;23886;46.614;14.276;2022-11-06T08:29:30;4.40;99.90
12315;DHT22;23886;46.614;14.276;2022-11-06T08:31:57;4.50;99.90
12315;DHT22;23886;46.614;14.276;2022-11-06T08:34:24;4.60;99.90
12315;DHT22;23886;46.614;14.276;2022-11-06T08:36:51;4.60;99.90
12315;DHT22;23886;46.614;14.276;2022-11-06T08:39:18;4.80;99.90
12315;DHT22;23886;46.614;14.276;2022-11-06T08:41:45;4.80;99.90
12315;DHT22;23886;46.614;14.276;2022-11-06T08:44:14;4.90;99.90
12315;DHT22;23886;46.614;14.276;2022-11-06T08:46:41;4.90;99.90
12315;DHT22;23886;46.614;14.276;2022-11-06T08:49:09;5.00;99.90
12315;DHT22;23886;46.614;14.276;2022-11-06T08:51:36;5.20;99.90
12315;DHT22;23886;46.614;14.276;2022-11-06T08:54:03;5.20;99.90
12315;DHT22;23886;46.614;14.276;2022-11-06T08:56:30;5.10;99.90
12315;DHT22;23886;46.614;14.276;2022-11-06T08:58:57;5.10;99.90
12315;DHT22;23886;46.614;14.276;2022-11-06T09:01:25;5.20;99.90
12315;DHT22;23886;46.614;14.276;2022-11-06T09:03:52;5.30;99.90
12315;DHT22;23886;46.614;14.276;2022-11-06T09:06:19;5.30;99.90
12315;DHT22;23886;46.614;14.276;2022-11-06T09:08:46;5.30;99.90
12315;DHT22;23886;46.614;14.276;2022-11-06T09:11:13;5.30;99.90
12315;DHT22;23886;46.614;14.276;2022-11-06T09:13:41;5.40;99.90
12315;DHT22;23886;46.614;14.276;2022-11-06T09:16:08;5.50;99.90
12315;DHT22;23886;46.614;14.276;2022-11-06T09:18:37;5.50;99.90
12315;DHT22;23886;46.614;14.276;2022-11-06T09:21:04;5.60;99.90
12315;DHT22;23886;46.614;14.276;2022-11-06T09:23:31;5.70;99.90
12315;DHT22;23886;46.614;14.276;2022-11-06T09:26:04;6.00;99.90
12315;DHT22;23886;46.614;14.276;2022-11-06T09:31:00;6.50;99.90
12315;DHT22;23886;46.614;14.276;2022-11-06T09:33:31;7.30;99.90
12315;DHT22;23886;46.614;14.276;2022-11-06T09:36:03;7.70;99.90
12315;DHT22;23886;46.614;14.276;2022-11-06T09:38:31;7.40;99.90
12315;DHT22;23886;46.614;14.276;2022-11-06T09:41:03;7.20;99.90
12315;DHT22;23886;46.614;14.276;2022-11-06T09:43:40;7.10;99.90
12315;DHT22;23886;46.614;14.276;2022-11-06T09:46:20;7.00;99.90
12315;DHT22;23886;46.614;14.276;2022-11-06T09:48:52;7.00;99.90
12315;DHT22;23886;46.614;14.276;2022-11-06T09:51:30;7.10;99.90
12315;DHT22;23886;46.614;14.276;2022-11-06T09:54:08;7.30;99.90
12315;DHT22;23886;46.614;14.276;2022-11-06T09:56:40;7.40;99.90
12315;DHT22;23886;46.614;14.276;2022-11-06T09:59:11;7.40;99.90
12315;DHT22;23886;46.614;14.276;2022-11-06T10:01:42;7.80;99.90
12315;DHT22;23886;46.614;14.276;2022-11-06T10:04:21;7.70;99.90
12315;DHT22;23886;46.614;14.276;2022-11-06T10:06:56;7.90;99.90
12315;DHT22;23886;46.614;14.276;2022-11-06T10:09:23;7.80;99.90
12315;DHT22;23886;46.614;14.276;2022-11-06T10:11:59;7.90;99.90
12315;DHT22;23886;46.614;14.276;2022-11-06T10:14:39;8.00;99.90
12315;DHT22;23886;46.614;14.276;2022-11-06T10:17:21;8.10;99.90
12315;DHT22;23886;46.614;14.276;2022-11-06T10:19:56;8.30;99.90
12315;DHT22;23886;46.614;14.276;2022-11-06T10:22:32;8.40;99.90
12315;DHT22;23886;46.614;14.276;2022-11-06T10:25:16;8.40;99.90
12315;DHT22;23886;46.614;14.276;2022-11-06T10:27:54;8.60;99.90
12315;DHT22;23886;46.614;14.276;2022-11-06T10:30:33;8.70;99.90
12315;DHT22;23886;46.614;14.276;2022-11-06T10:33:12;8.90;99.90
12315;DHT22;23886;46.614;14.276;2022-11-06T10:35:45;9.10;99.90
12315;DHT22;23886;46.614;14.276;2022-11-06T10:38:16;9.10;99.90
12315;DHT22;23886;46.614;14.276;2022-11-06T10:40:46;9.10;99.90
12315;DHT22;23886;46.614;14.276;2022-11-06T10:43:24;9.20;99.90
12315;DHT22;23886;46.614;14.276;2022-11-06T10:45:57;9.20;99.90
12315;DHT22;23886;46.614;14.276;2022-11-06T10:48:29;9.30;99.90
12315;DHT22;23886;46.614;14.276;2022-11-06T10:54:06;9.40;99.90
12315;DHT22;23886;46.614;14.276;2022-11-06T10:56:45;9.40;99.90
12315;DHT22;23886;46.614;14.276;2022-11-06T10:59:15;9.50;99.90
12315;DHT22;23886;46.614;14.276;2022-11-06T11:01:42;9.60;99.90
12315;DHT22;23886;46.614;14.276;2022-11-06T11:04:09;9.60;99.90
12315;DHT22;23886;46.614;14.276;2022-11-06T11:06:38;9.70;99.90
12315;DHT22;23886;46.614;14.276;2022-11-06T11:09:26;9.80;99.90
12315;DHT22;23886;46.614;14.276;2022-11-06T11:11:53;9.80;99.90
12315;DHT22;23886;46.614;14.276;2022-11-06T11:14:22;9.80;99.90
12315;DHT22;23886;46.614;14.276;2022-11-06T11:16:50;9.90;99.90
12315;DHT22;23886;46.614;14.276;2022-11-06T11:19:34;9.90;99.90
12315;DHT22;23886;46.614;14.276;2022-11-06T11:22:03;10.00;99.90
12315;DHT22;23886;46.614;14.276;2022-11-06T11:24:32;10.20;99.90
12315;DHT22;23886;46.614;14.276;2022-11-06T11:27:01;10.40;99.90
12315;DHT22;23886;46.614;14.276;2022-11-06T11:29:32;10.40;99.90
12315;DHT22;23886;46.614;14.276;2022-11-06T11:32:03;10.50;99.90
12315;DHT22;23886;46.614;14.276;2022-11-06T11:34:33;10.50;99.90
12315;DHT22;23886;46.614;14.276;2022-11-06T11:37:02;10.60;99.90
12315;DHT22;23886;46.614;14.276;2022-11-06T11:39:32;10.70;99.90
12315;DHT22;23886;46.614;14.276;2022-11-06T11:42:16;10.80;99.90
12315;DHT22;23886;46.614;14.276;2022-11-06T11:44:43;10.60;99.90
12315;DHT22;23886;46.614;14.276;2022-11-06T11:47:20;10.80;99.90
12315;DHT22;23886;46.614;14.276;2022-11-06T11:49:47;10.90;99.90
12315;DHT22;23886;46.614;14.276;2022-11-06T11:52:17;10.90;99.90
12315;DHT22;23886;46.614;14.276;2022-11-06T11:54:50;11.20;99.90
12315;DHT22;23886;46.614;14.276;2022-11-06T11:57:21;11.20;99.90
12315;DHT22;23886;46.614;14.276;2022-11-06T11:59:51;11.30;99.90
12315;DHT22;23886;46.614;14.276;2022-11-06T12:02:23;11.30;99.90
12315;DHT22;23886;46.614;14.276;2022-11-06T12:04:54;11.30;99.90
12315;DHT22;23886;46.614;14.276;2022-11-06T12:07:24;11.30;99.90
12315;DHT22;23886;46.614;14.276;2022-11-06T12:09:54;11.40;99.90
12315;DHT22;23886;46.614;14.276;2022-11-06T12:12:23;11.60;99.90
12315;DHT22;23886;46.614;14.276;2022-11-06T12:15:10;11.70;99.90
12315;DHT22;23886;46.614;14.276;2022-11-06T12:17:41;11.70;99.90
12315;DHT22;23886;46.614;14.276;2022-11-06T12:20:13;11.70;99.90
12315;DHT22;23886;46.614;14.276;2022-11-06T12:22:43;11.80;99.90
12315;DHT22;23886;46.614;14.276;2022-11-06T12:25:15;11.70;99.90
12315;DHT22;23886;46.614;14.276;2022-11-06T12:27:46;11.70;99.90
12315;DHT22;23886;46.614;14.276;2022-11-06T12:30:17;11.70;99.90
12315;DHT22;23886;46.614;14.276;2022-11-06T12:32:56;11.70;99.90
12315;DHT22;23886;46.614;14.276;2022-11-06T12:35:27;11.80;99.90
12315;DHT22;23886;46.614;14.276;2022-11-06T12:38:04;12.00;99.90
12315;DHT22;23886;46.614;14.276;2022-11-06T12:40:37;12.00;99.90
12315;DHT22;23886;46.614;14.276;2022-11-06T12:43:15;12.10;99.90
12315;DHT22;23886;46.614;14.276;2022-11-06T12:46:06;12.20;99.10
12315;DHT22;23886;46.614;14.276;2022-11-06T12:48:53;12.20;98.50
12315;DHT22;23886;46.614;14.276;2022-11-06T12:51:32;12.30;99.20
12315;DHT22;23886;46.614;14.276;2022-11-06T12:54:17;12.40;99.00
12315;DHT22;23886;46.614;14.276;2022-11-06T12:56:54;12.40;98.40
12315;DHT22;23886;46.614;14.276;2022-11-06T12:59:36;12.40;97.30
12315;DHT22;23886;46.614;14.276;2022-11-06T13:02:20;12.50;97.10
12315;DHT22;23886;46.614;14.276;2022-11-06T13:04:53;12.50;97.00
12315;DHT22;23886;46.614;14.276;2022-11-06T13:07:44;12.60;97.60
12315;DHT22;23886;46.614;14.276;2022-11-06T13:10:25;12.60;98.20
12315;DHT22;23886;46.614;14.276;2022-11-06T13:13:18;12.70;98.30
12315;DHT22;23886;46.614;14.276;2022-11-06T13:15:53;12.60;98.90
12315;DHT22;23886;46.614;14.276;2022-11-06T13:18:24;12.60;96.70
12315;DHT22;23886;46.614;14.276;2022-11-06T13:20:56;12.60;96.90
12315;DHT22;23886;46.614;14.276;2022-11-06T13:23:28;12.70;98.20
12315;DHT22;23886;46.614;14.276;2022-11-06T13:26:01;12.90;97.80
12315;DHT22;23886;46.614;14.276;2022-11-06T13:28:33;13.00;96.30
12315;DHT22;23886;46.614;14.276;2022-11-06T13:31:02;13.20;96.10
12315;DHT22;23886;46.614;14.276;2022-11-06T13:33:35;13.20;95.90
12315;DHT22;23886;46.614;14.276;2022-11-06T13:36:04;13.30;95.30
12315;DHT22;23886;46.614;14.276;2022-11-06T13:38:36;13.70;95.00
12315;DHT22;23886;46.614;14.276;2022-11-06T13:41:10;13.70;95.00
12315;DHT22;23886;46.614;14.276;2022-11-06T13:43:43;14.00;94.30
12315;DHT22;23886;46.614;14.276;2022-11-06T13:46:20;14.30;94.80
12315;DHT22;23886;46.614;14.276;2022-11-06T13:48:59;14.70;92.70
12315;DHT22;23886;46.614;14.276;2022-11-06T13:51:35;14.80;92.50
12315;DHT22;23886;46.614;14.276;2022-11-06T13:54:11;14.80;91.20
12315;DHT22;23886;46.614;14.276;2022-11-06T14:00:01;14.40;93.00
12315;DHT22;23886;46.614;14.276;2022-11-06T14:05:48;14.80;93.00
12315;DHT22;23886;46.614;14.276;2022-11-06T14:08:20;14.50;93.80
12315;DHT22;23886;46.614;14.276;2022-11-06T14:10:54;14.10;94.40
12315;DHT22;23886;46.614;14.276;2022-11-06T14:13:27;14.20;94.00
12315;DHT22;23886;46.614;14.276;2022-11-06T14:16:10;14.30;93.80
12315;DHT22;23886;46.614;14.276;2022-11-06T14:18:57;14.20;93.50
12315;DHT22;23886;46.614;14.276;2022-11-06T14:21:50;14.30;92.70
12315;DHT22;23886;46.614;14.276;2022-11-06T14:24:39;14.40;92.20
12315;DHT22;23886;46.614;14.276;2022-11-06T14:27:11;14.60;91.10
12315;DHT22;23886;46.614;14.276;2022-11-06T14:29:56;15.80;90.50
12315;DHT22;23886;46.614;14.276;2022-11-06T14:32:42;16.30;89.60
12315;DHT22;23886;46.614;14.276;2022-11-06T14:38:35;15.30;90.00
12315;DHT22;23886;46.614;14.276;2022-11-06T14:47:32;14.20;91.10
12315;DHT22;23886;46.614;14.276;2022-11-06T14:50:05;14.10;91.80
12315;DHT22;23886;46.614;14.276;2022-11-06T14:52:43;13.90;92.90
12315;DHT22;23886;46.614;14.276;2022-11-06T14:55:25;13.80;92.80
12315;DHT22;23886;46.614;14.276;2022-11-06T14:57:53;13.80;93.50
12315;DHT22;23886;46.614;14.276;2022-11-06T15:00:43;14.50;93.50
12315;DHT22;23886;46.614;14.276;2022-11-06T15:03:27;14.20;92.70
12315;DHT22;23886;46.614;14.276;2022-11-06T15:05:59;13.40;94.40
12315;DHT22;23886;46.614;14.276;2022-11-06T15:08:53;12.70;94.40
12315;DHT22;23886;46.614;14.276;2022-11-06T15:11:50;11.90;95.50
12315;DHT22;23886;46.614;14.276;2022-11-06T15:14:58;11.60;96.30
12315;DHT22;23886;46.614;14.276;2022-11-06T15:17:31;11.00;96.70
12315;DHT22;23886;46.614;14.276;2022-11-06T15:20:17;10.50;99.20
12315;DHT22;23886;46.614;14.276;2022-11-06T15:22:57;10.20;99.90
12315;DHT22;23886;46.614;14.276;2022-11-06T15:25:26;9.90;99.90
12315;DHT22;23886;46.614;14.276;2022-11-06T15:28:00;9.60;99.90
12315;DHT22;23886;46.614;14.276;2022-11-06T15:30:32;9.40;99.90
12315;DHT22;23886;46.614;14.276;2022-11-06T15:33:05;9.20;99.90
12315;DHT22;23886;46.614;14.276;2022-11-06T15:35:37;9.00;99.90
12315;DHT22;23886;46.614;14.276;2022-11-06T15:38:11;8.80;99.90
12315;DHT22;23886;46.614;14.276;2022-11-06T15:40:39;8.60;99.90
12315;DHT22;23886;46.614;14.276;2022-11-06T15:43:19;8.50;99.90
12315;DHT22;23886;46.614;14.276;2022-11-06T15:46:01;8.40;99.90
12315;DHT22;23886;46.614;14.276;2022-11-06T15:48:29;8.20;99.90
12315;DHT22;23886;46.614;14.276;2022-11-06T15:50:56;8.10;99.90
12315;DHT22;23886;46.614;14.276;2022-11-06T15:53:26;8.00;99.90
12315;DHT22;23886;46.614;14.276;2022-11-06T15:55:55;7.90;99.90
12315;DHT22;23886;46.614;14.276;2022-11-06T15:58:27;7.80;99.90
12315;DHT22;23886;46.614;14.276;2022-11-06T16:00:54;7.60;99.90
12315;DHT22;23886;46.614;14.276;2022-11-06T16:03:23;7.50;99.90
12315;DHT22;23886;46.614;14.276;2022-11-06T16:05:52;7.30;99.90
12315;DHT22;23886;46.614;14.276;2022-11-06T16:08:24;7.10;99.90
12315;DHT22;23886;46.614;14.276;2022-11-06T16:10:52;7.10;99.90
12315;DHT22;23886;46.614;14.276;2022-11-06T16:13:21;6.90;99.90
12315;DHT22;23886;46.614;14.276;2022-11-06T16:15:54;6.80;99.90
12315;DHT22;23886;46.614;14.276;2022-11-06T16:18:25;6.70;99.90
12315;DHT22;23886;46.614;14.276;2022-11-06T16:20:55;6.60;99.90
12315;DHT22;23886;46.614;14.276;2022-11-06T16:23:29;6.50;99.90
12315;DHT22;23886;46.614;14.276;2022-11-06T16:25:59;6.40;99.90